Aérodrome :
LOGIN :

S'inscrire | Disclaimer

   EN    FR    IT 

 










Légende :    VFR   VFR Marginal   IFR   IFR Intensif   IFR Très Intensif
Visi : 
Plafond : 
>= 8 km
>= 3000ft
5 à 8 km
1000 à 3000 ft
1500m à 5 km
500 à 1000 ft
800 à 1500m
200 à 500 ft
< 800m
< 200 ft
Symboles :   Orages  Brouillard  Fortes neiges  Fortes précipitations  Vent > 20 kt
SIGMETs :   Divers  Orages  Givrage  Turbulence  Onde Orograph.  Cendres Volcan.






- Altitude de l'aérodrome : 408 ft
- Code IATA : FKB


EDSB - Karlsruhe Baden Baden

DERNIER METAR :
  • 230150Z AUTO 20012KT 9999 SCT024/// OVC027/// 08/07 Q1028

METARs EXPIRÉS :
  • 230120Z AUTO 20013KT 9999 BKN025/// BKN039/// OVC063/// 08/07 Q1028
  • 230050Z AUTO 21013KT 9999 OVC025/// 08/07 Q1028
  • 230020Z AUTO 20011KT 9999 BKN027/// OVC066/// 08/07 Q1028
  • 222350Z AUTO 20013KT 9999 FEW045/// OVC066/// 09/07 Q1028
  • 222320Z AUTO 20011KT 9999 FEW031/// OVC067/// 08/07 Q1028

TAF TAF EDSB
Valide du 22 à 18h jusqu'au 23 à 18h UTC


221700Z 2218/2318 21015KT 9999 BKN025
TEMPO 2218/2304 19020KT
TEMPO 2222/2310 RA
BECMG 2304/2308 19025G35KT
TEMPO 2308/2317 19030G40KT



MET'MAP, la Météo Aéronautique d'un coup d'oeil ! - Copyright ORBIFLY Décembre 2007 - Disclaimer

ORBIFLY MET'MAP TEAM :

Programmation & Développement : Alexandra Zaïnal
Sur une idée originale de : Baudouin d'Aumeries
Assistance à la programmation : Marc-Olivier Méhu
Soutien technique & logistique : Manuel Goepfert

Contact : metmap@orbifly.com




SOURCES & CREDITS :

   NOAA